createdAt,value
2017-06-02T00:02:25.397Z,12.14
2017-06-02T00:04:53.692Z,11.10
2017-06-02T00:07:22.036Z,10.90
2017-06-02T00:09:50.329Z,12.34
2017-06-02T00:12:18.642Z,11.72
2017-06-02T00:14:47.012Z,11.88
2017-06-02T00:17:15.309Z,10.86
2017-06-02T00:19:43.634Z,11.44
2017-06-02T00:22:11.970Z,11.72
2017-06-02T00:24:40.264Z,12.20
2017-06-02T00:27:08.560Z,12.52
2017-06-02T00:29:37.244Z,10.82
2017-06-02T00:32:05.545Z,10.96
2017-06-02T00:34:33.845Z,11.12
2017-06-02T00:37:02.201Z,11.94
2017-06-02T00:39:30.497Z,10.88
2017-06-02T00:41:58.792Z,11.44
2017-06-02T00:44:27.127Z,10.72
2017-06-02T00:46:55.429Z,11.42
2017-06-02T00:49:23.734Z,11.10
2017-06-02T00:51:52.064Z,10.04
2017-06-02T00:54:20.365Z,11.20
2017-06-02T00:56:48.664Z,10.76
2017-06-02T00:59:17.003Z,9.62
2017-06-02T01:01:45.294Z,10.86
2017-06-02T01:04:13.583Z,9.12
2017-06-02T01:06:41.920Z,10.22
2017-06-02T01:09:10.212Z,9.16
2017-06-02T01:11:38.516Z,10.28
2017-06-02T01:14:06.868Z,9.00
2017-06-02T01:16:35.168Z,11.08
2017-06-02T01:19:03.460Z,9.22
2017-06-02T01:21:31.794Z,9.34
2017-06-02T01:24:00.080Z,9.72
2017-06-02T01:26:28.372Z,10.28
2017-06-02T01:28:56.712Z,10.22
2017-06-02T01:31:25.001Z,9.64
2017-06-02T01:33:53.296Z,10.34
2017-06-02T01:36:21.632Z,10.92
2017-06-02T01:38:49.919Z,9.90
2017-06-02T01:41:18.213Z,9.90
2017-06-02T01:43:46.561Z,10.38
2017-06-02T01:46:14.849Z,9.64
2017-06-02T01:48:43.136Z,9.80
2017-06-02T01:51:11.468Z,10.10
2017-06-02T01:53:39.764Z,10.42
2017-06-02T01:56:07.288Z,9.78
2017-06-02T01:58:34.851Z,9.92
2017-06-02T02:01:03.145Z,8.94
2017-06-02T02:03:31.431Z,10.08
2017-06-02T02:05:59.758Z,11.04
2017-06-02T02:08:27.276Z,9.60
2017-06-02T02:10:55.558Z,9.68
2017-06-02T02:13:23.895Z,8.50
2017-06-02T02:15:52.199Z,10.64
2017-06-02T02:18:20.505Z,10.30
2017-06-02T02:20:48.877Z,10.36
2017-06-02T02:23:17.169Z,8.72
2017-06-02T02:25:45.457Z,8.36
2017-06-02T02:28:13.789Z,8.64
2017-06-02T02:30:42.080Z,8.56
2017-06-02T02:33:10.372Z,9.80
2017-06-02T02:35:38.710Z,9.34
2017-06-02T02:38:07.005Z,10.22
2017-06-02T02:40:35.290Z,9.44
2017-06-02T02:43:03.618Z,9.80
2017-06-02T02:45:31.915Z,10.36
2017-06-02T02:48:00.216Z,11.04
2017-06-02T02:50:28.541Z,9.80
2017-06-02T02:52:56.836Z,10.64
2017-06-02T02:55:25.128Z,10.20
2017-06-02T02:57:53.468Z,10.96
2017-06-02T03:00:21.880Z,10.42
2017-06-02T03:02:50.169Z,9.92
2017-06-02T03:05:18.497Z,9.52
2017-06-02T03:07:46.783Z,10.04
2017-06-02T03:10:15.072Z,9.78
2017-06-02T03:12:42.675Z,10.78
2017-06-02T03:15:10.964Z,9.72
2017-06-02T03:17:39.259Z,9.86
2017-06-02T03:20:07.600Z,10.14
2017-06-02T03:22:35.903Z,11.56
2017-06-02T03:25:04.193Z,10.08
2017-06-02T03:27:32.526Z,9.82
2017-06-02T03:30:00.813Z,10.52
2017-06-02T03:32:29.112Z,10.62
2017-06-02T03:34:57.450Z,9.68
2017-06-02T03:37:25.739Z,8.48
2017-06-02T03:39:54.024Z,9.24
2017-06-02T03:42:22.361Z,9.50
2017-06-02T03:44:50.652Z,9.20
2017-06-02T03:47:18.944Z,9.82
2017-06-02T03:49:46.516Z,9.04
2017-06-02T03:52:14.808Z,9.62
2017-06-02T03:54:43.097Z,9.74
2017-06-02T03:57:11.428Z,9.68
2017-06-02T03:59:39.721Z,8.96
2017-06-02T04:02:08.012Z,9.06
2017-06-02T04:04:35.581Z,8.92
2017-06-02T04:07:03.872Z,8.08
2017-06-02T04:09:32.161Z,7.60
2017-06-02T04:12:00.500Z,8.00
2017-06-02T04:14:28.794Z,8.32
2017-06-02T04:16:57.088Z,8.90
2017-06-02T04:19:24.664Z,8.38
2017-06-02T04:21:52.945Z,7.30
2017-06-02T04:24:21.235Z,6.72
2017-06-02T04:26:49.561Z,7.94
2017-06-02T04:29:17.852Z,7.78
2017-06-02T04:31:46.150Z,7.84
2017-06-02T04:34:14.497Z,9.18
2017-06-02T04:36:42.782Z,10.16
2017-06-02T04:39:11.079Z,8.96
2017-06-02T04:41:39.441Z,7.56
2017-06-02T04:44:07.737Z,8.04
2017-06-02T04:46:36.029Z,6.92
2017-06-02T04:49:04.363Z,8.88
2017-06-02T04:51:32.648Z,7.64
2017-06-02T04:54:00.940Z,7.12
2017-06-02T04:56:29.268Z,6.62
2017-06-02T04:58:57.563Z,7.86
2017-06-02T05:01:25.869Z,7.58
2017-06-02T05:03:54.216Z,7.70
2017-06-02T05:06:22.501Z,7.28
2017-06-02T05:08:50.793Z,5.82
2017-06-02T05:11:19.120Z,6.26
2017-06-02T05:13:47.408Z,6.60
2017-06-02T05:16:15.693Z,6.80
2017-06-02T05:18:44.261Z,5.28
2017-06-02T05:21:12.548Z,6.14
2017-06-02T05:23:40.831Z,5.00
2017-06-02T05:26:09.388Z,5.42
2017-06-02T05:28:37.688Z,5.72
2017-06-02T05:31:05.979Z,5.78
2017-06-02T05:33:34.320Z,4.96
2017-06-02T05:36:02.611Z,4.90
2017-06-02T05:38:30.920Z,5.50
2017-06-02T05:40:59.244Z,4.50
2017-06-02T05:43:27.527Z,4.60
2017-06-02T05:45:55.816Z,4.68
2017-06-02T05:48:24.224Z,6.00
2017-06-02T05:50:52.604Z,6.52
2017-06-02T05:53:20.918Z,5.72
2017-06-02T05:55:49.241Z,6.60
2017-06-02T05:58:17.526Z,7.78
2017-06-02T06:00:45.812Z,6.84
2017-06-02T06:03:14.159Z,6.98
2017-06-02T06:05:42.447Z,6.30
2017-06-02T06:08:10.726Z,6.14
2017-06-02T06:10:39.047Z,5.20
2017-06-02T06:13:07.351Z,5.46
2017-06-02T06:15:35.636Z,6.30
2017-06-02T06:18:03.973Z,6.22
2017-06-02T06:20:32.256Z,6.36
2017-06-02T06:23:00.549Z,6.22
2017-06-02T06:25:28.880Z,6.18
2017-06-02T06:27:57.167Z,5.74
2017-06-02T06:30:25.448Z,5.32
2017-06-02T06:32:53.776Z,4.90
2017-06-02T06:35:21.296Z,4.14
2017-06-02T06:37:49.592Z,5.30
2017-06-02T06:40:17.931Z,4.72
2017-06-02T06:42:46.453Z,3.84
2017-06-02T06:45:14.738Z,4.40
2017-06-02T06:47:43.064Z,3.94
2017-06-02T06:50:11.356Z,4.42
2017-06-02T06:52:39.651Z,4.74
2017-06-02T06:55:08.005Z,4.50
2017-06-02T06:57:36.288Z,5.04
2017-06-02T07:00:04.579Z,5.12
2017-06-02T07:02:32.943Z,4.90
2017-06-02T07:05:01.237Z,4.36
2017-06-02T07:07:29.772Z,4.24
2017-06-02T07:09:58.140Z,5.40
2017-06-02T07:12:26.430Z,4.58
2017-06-02T07:14:54.717Z,5.64
2017-06-02T07:17:23.055Z,7.08
2017-06-02T07:19:51.337Z,5.22
2017-06-02T07:22:19.628Z,6.96
2017-06-02T07:24:47.965Z,6.12
2017-06-02T07:27:16.250Z,6.14
2017-06-02T07:29:44.536Z,6.78
2017-06-02T07:32:13.000Z,7.64
2017-06-02T07:34:41.284Z,6.96
2017-06-02T07:37:09.571Z,7.12
2017-06-02T07:39:37.979Z,6.40
2017-06-02T07:42:07.911Z,7.32
2017-06-02T07:44:37.125Z,6.60
2017-06-02T07:47:05.948Z,6.86
2017-06-02T07:52:48.235Z,6.72
2017-06-02T07:58:22.272Z,7.72
2017-06-02T08:00:58.732Z,7.16
2017-06-02T08:03:33.401Z,7.18
2017-06-02T08:06:24.717Z,7.74
2017-06-02T08:09:13.581Z,7.58
2017-06-02T08:11:53.887Z,6.30
2017-06-02T08:17:35.849Z,6.94
2017-06-02T08:20:15.383Z,7.30
2017-06-02T08:23:19.297Z,6.20
2017-06-02T08:26:00.996Z,6.34
2017-06-02T08:34:04.832Z,7.22
2017-06-02T08:36:42.126Z,8.06
2017-06-02T08:39:23.240Z,7.76
2017-06-02T09:05:14.081Z,5.28
2017-06-02T09:07:42.641Z,6.10
2017-06-02T09:10:10.940Z,5.86
2017-06-02T09:12:39.232Z,5.80
2017-06-02T09:15:07.571Z,5.50
2017-06-02T09:17:35.865Z,5.76
2017-06-02T09:20:04.201Z,6.42
2017-06-02T09:22:32.541Z,5.94
2017-06-02T09:25:00.829Z,5.68
2017-06-02T09:27:29.122Z,5.42
2017-06-02T09:29:57.459Z,5.76
2017-06-02T09:32:25.749Z,5.80
2017-06-02T09:34:54.076Z,5.88
2017-06-02T09:37:22.417Z,6.70
2017-06-02T09:39:50.709Z,6.48
2017-06-02T09:42:19.004Z,5.76
2017-06-02T09:44:47.340Z,6.44
2017-06-02T09:47:15.624Z,6.60
2017-06-02T09:49:43.917Z,6.68
2017-06-02T09:52:12.243Z,6.34
2017-06-02T09:54:40.537Z,6.62
2017-06-02T09:57:08.841Z,7.40
2017-06-02T09:59:37.201Z,6.80
2017-06-02T10:02:05.501Z,7.02
2017-06-02T10:04:33.810Z,6.68
2017-06-02T10:07:02.184Z,7.02
2017-06-02T10:09:30.494Z,7.40
2017-06-02T10:11:58.816Z,6.88
2017-06-02T10:14:27.221Z,7.60
2017-06-02T10:16:55.547Z,7.28
2017-06-02T10:19:23.119Z,7.28
2017-06-02T10:21:51.466Z,6.92
2017-06-02T10:24:19.809Z,6.84
2017-06-02T10:26:48.109Z,5.28
2017-06-02T10:29:16.482Z,5.26
2017-06-02T10:31:44.818Z,4.78
2017-06-02T10:34:13.115Z,4.80
2017-06-02T10:36:41.458Z,5.66
2017-06-02T10:39:09.764Z,7.40
2017-06-02T10:41:38.059Z,6.08
2017-06-02T10:44:06.478Z,7.04
2017-06-02T10:46:39.211Z,6.80
2017-06-02T10:49:08.991Z,7.38
2017-06-02T10:51:37.561Z,6.88
2017-06-02T10:54:05.997Z,5.52
2017-06-02T10:56:34.342Z,9.68
2017-06-02T10:59:02.657Z,14.32
2017-06-02T11:01:30.947Z,10.72
2017-06-02T11:03:59.480Z,10.28
2017-06-02T11:06:27.771Z,10.74
2017-06-02T11:08:56.061Z,8.06
2017-06-02T11:11:24.400Z,7.68
2017-06-02T11:13:52.697Z,10.28
2017-06-02T11:16:20.988Z,9.14
2017-06-02T11:18:49.316Z,8.42
2017-06-02T11:21:17.601Z,6.36
2017-06-02T11:23:45.886Z,8.76
2017-06-02T11:26:14.214Z,8.84
2017-06-02T11:28:42.496Z,7.38
2017-06-02T11:31:10.790Z,6.34
2017-06-02T11:33:39.129Z,5.98
2017-06-02T11:36:07.422Z,6.20
2017-06-02T11:38:34.941Z,6.24
2017-06-02T11:41:03.274Z,5.92
2017-06-02T11:43:31.565Z,8.22
2017-06-02T11:45:59.897Z,6.40
2017-06-02T11:48:27.464Z,5.42
2017-06-02T11:50:55.752Z,7.86
2017-06-02T11:53:23.271Z,6.62
2017-06-02T11:55:51.603Z,7.20
2017-06-02T11:58:19.891Z,6.64
2017-06-02T12:00:48.176Z,6.80
2017-06-02T12:03:16.508Z,7.58
2017-06-02T12:05:44.796Z,8.32
2017-06-02T12:08:13.084Z,6.90
2017-06-02T12:10:41.421Z,8.18
2017-06-02T12:13:09.711Z,7.42
2017-06-02T12:15:38.215Z,8.82
2017-06-02T12:18:06.777Z,9.92
2017-06-02T12:20:35.071Z,9.44
2017-06-02T12:23:03.353Z,9.00
2017-06-02T12:25:31.688Z,8.48
2017-06-02T12:27:59.976Z,9.54
2017-06-02T12:30:28.272Z,9.52
2017-06-02T12:32:56.611Z,9.70
2017-06-02T12:35:24.897Z,9.18
2017-06-02T12:37:53.175Z,9.90
2017-06-02T12:40:21.568Z,10.26
2017-06-02T12:42:49.865Z,11.20
2017-06-02T12:45:18.388Z,10.58
2017-06-02T12:47:46.718Z,10.68
2017-06-02T12:50:15.012Z,9.84
2017-06-02T12:52:43.295Z,8.56
2017-06-02T12:55:11.633Z,9.24
2017-06-02T12:57:39.932Z,8.68
2017-06-02T13:00:08.228Z,7.74
2017-06-02T13:02:36.561Z,9.18
2017-06-02T13:05:04.854Z,8.96
2017-06-02T13:07:33.140Z,8.58
2017-06-02T13:10:01.461Z,9.94
2017-06-02T13:12:29.804Z,9.30
2017-06-02T13:14:58.091Z,8.56
2017-06-02T13:17:26.379Z,8.60
2017-06-02T13:19:54.699Z,8.12
2017-06-02T13:22:22.988Z,10.10
2017-06-02T13:24:51.277Z,9.30
2017-06-02T13:27:19.604Z,8.48
2017-06-02T13:29:47.894Z,8.00
2017-06-02T13:32:16.176Z,8.56
2017-06-02T13:34:44.483Z,8.46
2017-06-02T13:37:12.776Z,7.54
2017-06-02T13:39:41.121Z,4.98
2017-06-02T13:42:09.411Z,5.42
2017-06-02T13:44:36.931Z,6.16
2017-06-02T13:47:05.259Z,6.22
2017-06-02T13:49:33.552Z,7.82
2017-06-02T13:52:01.838Z,6.70
2017-06-02T13:54:30.160Z,6.50
2017-06-02T13:56:58.483Z,5.04
2017-06-02T13:59:26.759Z,5.50
2017-06-02T14:01:55.072Z,5.44
2017-06-02T14:04:23.360Z,5.70
2017-06-02T14:06:51.692Z,6.52
2017-06-02T14:09:19.980Z,6.86
2017-06-02T14:11:48.268Z,6.44
2017-06-02T14:14:16.599Z,6.66
2017-06-02T14:16:44.899Z,6.80
2017-06-02T14:19:13.192Z,6.62
2017-06-02T14:21:41.517Z,7.72
2017-06-02T14:24:09.797Z,7.24
2017-06-02T14:26:38.083Z,5.78
2017-06-02T14:29:06.423Z,5.62
2017-06-02T14:31:34.720Z,5.80
2017-06-02T14:34:03.005Z,5.80
2017-06-02T14:36:31.340Z,5.60
2017-06-02T14:38:59.632Z,5.50
2017-06-02T14:41:27.922Z,5.64
2017-06-02T14:43:56.252Z,5.70
2017-06-02T14:46:24.536Z,5.20
2017-06-02T14:48:52.830Z,5.84
2017-06-02T14:51:21.157Z,6.40
2017-06-02T14:53:49.444Z,4.82
2017-06-02T14:56:17.732Z,4.52
2017-06-02T14:58:46.064Z,4.94
2017-06-02T15:01:18.500Z,4.62
2017-06-02T15:03:46.863Z,4.88
2017-06-02T15:06:15.151Z,4.60
2017-06-02T15:08:43.440Z,4.88
2017-06-02T15:11:11.771Z,5.64
2017-06-02T15:13:40.067Z,5.20
2017-06-02T15:16:07.593Z,4.86
2017-06-02T15:18:35.936Z,7.68
2017-06-02T15:21:04.245Z,6.32
2017-06-02T15:23:32.568Z,6.04
2017-06-02T15:26:00.905Z,5.94
2017-06-02T15:28:29.197Z,5.74
2017-06-02T15:30:57.484Z,5.90
2017-06-02T15:33:25.815Z,5.74
2017-06-02T15:35:54.099Z,5.88
2017-06-02T15:38:22.389Z,7.92
2017-06-02T15:40:50.724Z,7.18
2017-06-02T15:43:19.028Z,8.14
2017-06-02T15:45:47.324Z,6.72
2017-06-02T15:48:15.662Z,5.58
2017-06-02T15:50:43.947Z,6.90
2017-06-02T15:53:12.240Z,5.34
2017-06-02T15:55:40.573Z,5.44
2017-06-02T15:58:08.871Z,5.86
2017-06-02T16:00:37.174Z,4.94
2017-06-02T16:03:05.504Z,4.74
2017-06-02T16:05:44.621Z,4.64
2017-06-02T16:08:13.221Z,6.88
2017-06-02T16:10:41.607Z,5.54
2017-06-02T16:13:09.918Z,4.50
2017-06-02T16:15:38.258Z,7.20
2017-06-02T16:18:06.666Z,6.18
2017-06-02T16:20:35.956Z,6.52
2017-06-02T16:23:04.450Z,7.68
2017-06-02T16:25:32.762Z,6.48
2017-06-02T16:28:01.058Z,6.40
2017-06-02T16:30:29.397Z,5.50
2017-06-02T16:32:57.696Z,6.48
2017-06-02T16:35:26.006Z,5.88
2017-06-02T16:37:54.397Z,7.18
2017-06-02T16:40:22.684Z,7.38
2017-06-02T16:42:50.972Z,6.80
2017-06-02T16:45:19.339Z,6.30
2017-06-02T16:47:47.628Z,7.44
2017-06-02T16:50:15.925Z,7.20
2017-06-02T16:52:44.268Z,6.50
2017-06-02T16:55:12.781Z,7.04
2017-06-02T16:57:41.078Z,6.38
2017-06-02T17:00:09.434Z,6.60
2017-06-02T17:02:37.806Z,7.60
2017-06-02T17:05:06.102Z,6.98
2017-06-02T17:07:34.468Z,6.18
2017-06-02T17:10:02.756Z,6.22
2017-06-02T17:12:31.094Z,6.50
2017-06-02T17:14:59.428Z,7.02
2017-06-02T17:17:28.707Z,9.28
2017-06-02T17:19:57.001Z,8.48
2017-06-02T17:22:25.348Z,8.68
2017-06-02T17:24:53.647Z,8.60
2017-06-02T17:27:21.937Z,8.90
2017-06-02T17:29:50.277Z,7.96
2017-06-02T17:32:18.568Z,7.54
2017-06-02T17:34:46.857Z,6.58
2017-06-02T17:37:51.447Z,9.87
2017-06-02T17:40:18.971Z,7.80
2017-06-02T17:42:46.492Z,7.90
2017-06-02T17:45:14.111Z,7.63
2017-06-02T17:47:41.632Z,7.33
2017-06-02T17:50:09.919Z,7.27
2017-06-02T17:52:37.485Z,7.40
2017-06-02T17:55:05.017Z,7.67
2017-06-02T17:57:32.532Z,7.67
2017-06-02T18:00:00.096Z,7.70
2017-06-02T18:02:27.619Z,8.03
2017-06-02T18:04:55.128Z,8.87
2017-06-02T18:07:22.676Z,7.83
2017-06-02T18:09:50.192Z,7.40
2017-06-02T18:12:18.477Z,7.90
2017-06-02T18:14:46.036Z,7.80
2017-06-02T18:17:13.560Z,8.07
2017-06-02T18:19:41.095Z,7.60
2017-06-02T18:22:08.646Z,8.87
2017-06-02T18:24:36.211Z,6.63
2017-06-02T18:27:03.728Z,6.83
2017-06-02T18:29:31.280Z,7.13
2017-06-02T18:31:59.560Z,7.13
2017-06-02T18:34:27.140Z,7.23
2017-06-02T18:36:54.656Z,7.50
2017-06-02T18:39:22.169Z,7.70
2017-06-02T18:41:49.727Z,8.00
2017-06-02T18:44:17.243Z,8.40
2017-06-02T18:46:44.758Z,8.03
2017-06-02T18:49:12.309Z,7.77
2017-06-02T18:51:39.839Z,8.57
2017-06-02T18:54:08.124Z,7.97
2017-06-02T18:56:36.443Z,9.00
2017-06-02T18:59:03.957Z,8.47
2017-06-02T19:01:31.476Z,8.10
2017-06-02T19:03:59.056Z,8.47
2017-06-02T19:06:26.587Z,8.43
2017-06-02T19:08:54.100Z,9.23
2017-06-02T19:11:22.420Z,7.90
2017-06-02T19:13:50.133Z,8.63
2017-06-02T19:16:18.424Z,8.70
2017-06-02T19:18:47.422Z,9.60
2017-06-02T19:21:14.944Z,8.10
2017-06-02T19:23:42.455Z,7.30
2017-06-02T19:26:10.016Z,19.87
2017-06-02T19:28:37.540Z,7.53
2017-06-02T19:31:05.064Z,7.20
2017-06-02T19:33:32.615Z,6.37
2017-06-02T19:36:00.125Z,7.57
2017-06-02T19:38:28.408Z,7.73
2017-06-02T19:40:55.964Z,7.50
2017-06-02T19:43:23.476Z,8.90
2017-06-02T19:45:50.990Z,7.70
2017-06-02T19:48:18.572Z,7.27
2017-06-02T19:50:46.080Z,7.00
2017-06-02T19:53:13.591Z,8.37
2017-06-02T19:55:41.148Z,8.33
2017-06-02T19:58:08.660Z,8.43
2017-06-02T20:00:36.176Z,8.77
2017-06-02T20:03:03.740Z,9.23
2017-06-02T20:05:31.265Z,11.47
2017-06-02T20:07:59.655Z,11.27
2017-06-02T20:10:27.224Z,9.50
2017-06-02T20:12:54.741Z,9.80
2017-06-02T20:15:22.257Z,7.73
2017-06-02T20:17:49.817Z,8.20
2017-06-02T20:20:17.336Z,8.23
2017-06-02T20:22:45.620Z,7.67
2017-06-02T20:25:13.953Z,8.17
2017-06-02T20:27:41.476Z,8.37
2017-06-02T20:30:09.050Z,8.93
2017-06-02T20:32:36.623Z,8.80
2017-06-02T20:35:04.157Z,8.73
2017-06-02T20:37:31.675Z,11.73
2017-06-02T20:39:59.241Z,17.23
2017-06-02T20:42:26.760Z,14.97
2017-06-02T20:44:54.299Z,11.73
2017-06-02T20:47:21.861Z,9.40
2017-06-02T20:49:49.376Z,9.40
2017-06-02T20:52:16.892Z,8.93
2017-06-02T20:54:44.468Z,8.00
2017-06-02T20:57:11.992Z,8.80
2017-06-02T20:59:39.504Z,8.70
2017-06-02T21:02:07.084Z,9.17
2017-06-02T21:04:34.607Z,8.73
2017-06-02T21:07:02.123Z,9.70
2017-06-02T21:09:29.708Z,8.77
2017-06-02T21:11:57.222Z,8.30
2017-06-02T21:14:24.732Z,9.27
2017-06-02T21:16:52.301Z,8.63
2017-06-02T21:19:19.807Z,8.10
2017-06-02T21:21:48.084Z,7.90
2017-06-02T21:24:15.650Z,8.80
2017-06-02T21:26:43.932Z,8.53
2017-06-02T21:29:12.203Z,8.83
2017-06-02T21:31:40.532Z,8.27
2017-06-02T21:34:08.069Z,8.23
2017-06-02T21:36:35.576Z,8.33
2017-06-02T21:39:03.156Z,8.00
2017-06-02T21:41:30.676Z,8.33
2017-06-02T21:43:58.193Z,8.13
2017-06-02T21:46:26.528Z,7.80
2017-06-02T21:48:54.035Z,8.90
2017-06-02T21:51:21.544Z,9.40
2017-06-02T21:53:49.100Z,9.80
2017-06-02T21:56:16.620Z,8.87
2017-06-02T21:58:44.148Z,9.70
2017-06-02T22:01:11.737Z,9.80
2017-06-02T22:03:39.247Z,9.80
2017-06-02T22:06:06.765Z,11.70
2017-06-02T22:08:34.334Z,11.80
2017-06-02T22:11:02.087Z,12.40
2017-06-02T22:13:29.600Z,12.43
2017-06-02T22:15:57.174Z,12.33
2017-06-02T22:18:24.703Z,12.63
2017-06-02T22:20:52.225Z,13.60
2017-06-02T22:23:19.890Z,12.80
2017-06-02T22:25:47.446Z,12.20
2017-06-02T22:28:14.981Z,11.30
2017-06-02T22:30:43.327Z,10.33
2017-06-02T22:33:10.868Z,11.97
2017-06-02T22:35:38.413Z,9.90
2017-06-02T22:38:06.068Z,11.63
2017-06-02T22:40:33.593Z,10.17
2017-06-02T22:43:01.120Z,10.33
2017-06-02T22:45:28.694Z,9.70
2017-06-02T22:47:56.213Z,8.03
2017-06-02T22:50:23.752Z,10.07
2017-06-02T22:52:52.084Z,8.13
2017-06-02T22:55:19.605Z,9.97
2017-06-02T22:57:47.128Z,10.03
2017-06-02T23:00:14.710Z,8.60
2017-06-02T23:02:43.000Z,9.00
2017-06-02T23:05:10.524Z,10.07
2017-06-02T23:07:38.107Z,11.37
2017-06-02T23:10:06.401Z,10.07
2017-06-02T23:12:33.928Z,9.00
2017-06-02T23:15:01.510Z,9.07
2017-06-02T23:17:29.801Z,9.57
2017-06-02T23:19:57.337Z,9.80
2017-06-02T23:22:25.681Z,9.03
2017-06-02T23:24:53.209Z,9.73
2017-06-02T23:27:20.733Z,10.20
2017-06-02T23:29:48.331Z,11.00
2017-06-02T23:32:15.863Z,10.73
2017-06-02T23:34:44.156Z,10.57
2017-06-02T23:37:11.745Z,11.80
2017-06-02T23:39:39.296Z,12.07
2017-06-02T23:42:06.923Z,12.07
2017-06-02T23:44:34.549Z,10.77
2017-06-02T23:47:02.190Z,10.03
2017-06-02T23:49:29.710Z,12.20
2017-06-02T23:51:58.064Z,10.83
2017-06-02T23:54:25.600Z,11.97
2017-06-02T23:56:53.145Z,10.73
2017-06-02T23:59:20.747Z,12.70
